Time;durP1;ratioP1;P1;durP2;ratioP2;P2;SDS_P1;SDS_P2;PMS_P1;PMS_P2;Temp;Humidity;BMP_temperature;BMP_pressure;BME280_temperature;BME280_humidity;BME280_pressure;Samples;Min_cycle;Max_cycle;Signal;HPM_P1;HPM_P2
2023/11/12 00:00:53;;;;;;;24.23;7.15;;;10.80;99.90;;;;;;4265965;27;20043;-53
2023/11/12 00:02:55;;;;;;;22.08;6.20;;;10.80;99.90;;;;;;4247387;27;20055;-54
2023/11/12 00:04:57;;;;;;;21.55;6.93;;;10.70;99.90;;;;;;4247507;27;20039;-54
2023/11/12 00:06:59;;;;;;;24.50;6.95;;;10.80;99.90;;;;;;4266017;27;20047;-53
2023/11/12 00:09:04;;;;;;;17.50;7.05;;;10.60;99.90;;;;;;4265844;27;20047;-54
2023/11/12 00:11:07;;;;;;;22.08;7.13;;;10.70;99.90;;;;;;4265602;27;20053;-54
2023/11/12 00:13:09;;;;;;;17.77;7.00;;;10.70;99.90;;;;;;4265638;27;20050;-54
2023/11/12 00:15:13;;;;;;;14.90;5.78;;;10.80;99.90;;;;;;4265653;27;20542;-54
2023/11/12 00:17:16;;;;;;;19.33;6.60;;;10.80;99.90;;;;;;4265788;27;20099;-54
2023/11/12 00:19:18;;;;;;;18.10;6.55;;;10.90;99.90;;;;;;4265433;27;20069;-53
2023/11/12 00:21:20;;;;;;;14.07;6.10;;;10.90;99.90;;;;;;4247034;27;20086;-54
2023/11/12 00:23:24;;;;;;;13.27;5.32;;;10.90;99.90;;;;;;4246969;27;20047;-53
2023/11/12 00:25:26;;;;;;;9.98;4.35;;;10.90;99.90;;;;;;4264977;27;20126;-53
2023/11/12 00:27:28;;;;;;;20.00;7.43;;;10.80;99.90;;;;;;4265178;27;20051;-53
2023/11/12 00:29:31;;;;;;;17.13;6.13;;;10.80;99.90;;;;;;4265566;27;20066;-54
2023/11/12 00:31:34;;;;;;;14.65;6.10;;;10.70;99.90;;;;;;4247167;27;20076;-54
2023/11/12 00:33:37;;;;;;;18.20;6.57;;;10.80;99.90;;;;;;4265656;27;20054;-53
2023/11/12 00:35:42;;;;;;;22.35;6.15;;;10.70;99.90;;;;;;4265202;27;20051;-53
2023/11/12 00:37:46;;;;;;;26.95;8.15;;;10.70;99.90;;;;;;4265134;27;20054;-52
2023/11/12 00:39:48;;;;;;;16.98;6.63;;;10.70;99.90;;;;;;4265014;27;20046;-54
2023/11/12 00:41:50;;;;;;;17.77;6.15;;;10.70;99.90;;;;;;4265376;27;20103;-54
2023/11/12 00:43:52;;;;;;;23.40;6.32;;;10.60;99.90;;;;;;4247040;27;20047;-53
2023/11/12 00:45:56;;;;;;;14.98;5.85;;;10.60;99.90;;;;;;4265190;27;20031;-54
2023/11/12 00:48:00;;;;;;;21.73;5.65;;;10.50;99.90;;;;;;4265090;27;20485;-54
2023/11/12 00:50:03;;;;;;;20.85;5.85;;;10.50;99.90;;;;;;4264946;27;20129;-53
2023/11/12 00:52:05;;;;;;;23.35;6.63;;;10.60;99.90;;;;;;4265173;27;20382;-53
2023/11/12 00:54:11;;;;;;;17.45;6.03;;;10.60;99.90;;;;;;4264519;27;20083;-53
2023/11/12 00:56:14;;;;;;;21.40;6.53;;;10.60;99.90;;;;;;4246830;27;20047;-54
2023/11/12 00:58:16;;;;;;;14.98;5.55;;;10.50;99.90;;;;;;4265205;27;20043;-54
2023/11/12 01:00:18;;;;;;;19.88;5.65;;;10.40;99.90;;;;;;4265564;27;20129;-53
2023/11/12 01:02:20;;;;;;;19.35;6.00;;;10.50;99.90;;;;;;4264966;27;20054;-54
2023/11/12 01:04:23;;;;;;;14.48;5.60;;;10.50;99.90;;;;;;4265189;27;20047;-54
2023/11/12 01:06:25;;;;;;;15.90;5.60;;;10.50;99.90;;;;;;4264283;27;20119;-53
2023/11/12 01:08:27;;;;;;;15.93;6.28;;;10.50;99.90;;;;;;4264669;27;20046;-55
2023/11/12 01:10:30;;;;;;;18.77;6.20;;;10.60;99.90;;;;;;4264829;27;20069;-54
2023/11/12 01:12:32;;;;;;;13.32;5.65;;;10.50;99.90;;;;;;4246698;27;20050;-53
2023/11/12 01:14:34;;;;;;;19.42;5.40;;;10.50;99.90;;;;;;4264899;27;20408;-53
2023/11/12 01:16:39;;;;;;;15.73;5.25;;;10.60;99.90;;;;;;4264797;27;20051;-55
2023/11/12 01:18:41;;;;;;;13.13;4.95;;;10.60;99.90;;;;;;4264919;27;20039;-54
2023/11/12 01:20:45;;;;;;;15.73;4.68;;;10.50;99.90;;;;;;4264750;27;20485;-54
2023/11/12 01:22:47;;;;;;;16.17;5.53;;;10.60;99.90;;;;;;4265031;27;20095;-54
2023/11/12 01:24:50;;;;;;;13.55;4.80;;;10.60;99.90;;;;;;4246536;27;20482;-54
2023/11/12 01:26:52;;;;;;;12.20;4.95;;;10.60;99.90;;;;;;4246125;27;20092;-54
2023/11/12 01:28:54;;;;;;;19.10;4.65;;;10.50;99.90;;;;;;4264887;27;20039;-53
2023/11/12 01:30:57;;;;;;;18.55;5.38;;;10.50;99.90;;;;;;4264800;27;20125;-54
2023/11/12 01:32:59;;;;;;;16.30;5.18;;;10.40;99.90;;;;;;4264604;27;20047;-53
2023/11/12 01:35:03;;;;;;;13.52;4.35;;;10.40;99.90;;;;;;4264602;27;20049;-54
2023/11/12 01:37:06;;;;;;;14.65;5.38;;;10.40;99.90;;;;;;4264460;27;20047;-53
2023/11/12 01:39:08;;;;;;;14.88;4.75;;;10.50;99.90;;;;;;4266531;27;20691;-54
2023/11/12 01:41:12;;;;;;;10.35;4.15;;;10.50;99.90;;;;;;4268561;27;20043;-54
2023/11/12 01:43:14;;;;;;;15.52;4.47;;;10.60;99.90;;;;;;4268164;27;20062;-54
2023/11/12 01:45:16;;;;;;;13.80;4.68;;;10.60;99.90;;;;;;4268676;27;20053;-55
2023/11/12 01:47:19;;;;;;;11.23;4.03;;;10.60;99.90;;;;;;4268270;27;20099;-55
2023/11/12 01:49:21;;;;;;;14.80;4.50;;;10.60;99.90;;;;;;4268134;27;20042;-55
2023/11/12 01:51:26;;;;;;;12.10;3.80;;;10.70;99.90;;;;;;4267215;27;20049;-54
2023/11/12 01:53:31;;;;;;;12.35;3.75;;;10.50;99.90;;;;;;4267513;27;20049;-53
2023/11/12 01:55:33;;;;;;;13.25;3.95;;;10.60;99.90;;;;;;4268050;27;20039;-53
2023/11/12 01:57:39;;;;;;;13.27;4.38;;;10.60;99.90;;;;;;4267558;27;20074;-54
2023/11/12 01:59:41;;;;;;;17.90;4.85;;;10.50;99.90;;;;;;4267661;27;20442;-53
2023/11/12 02:01:43;;;;;;;11.23;3.90;;;10.40;99.90;;;;;;4267559;27;20565;-53
2023/11/12 02:03:46;;;;;;;17.35;4.90;;;10.40;99.90;;;;;;4267370;27;20058;-54
2023/11/12 02:05:49;;;;;;;11.68;3.78;;;10.40;99.90;;;;;;4267884;27;20070;-54
2023/11/12 02:07:51;;;;;;;13.50;4.15;;;10.40;99.90;;;;;;4267379;27;20050;-53
2023/11/12 02:10:05;;;;;;;12.43;4.22;;;10.50;99.90;;;;;;4267544;27;20043;-54
2023/11/12 02:12:08;;;;;;;12.38;3.38;;;10.50;99.90;;;;;;4267494;27;20478;-53
2023/11/12 02:14:11;;;;;;;10.70;3.67;;;10.50;99.90;;;;;;4267614;27;20046;-54
2023/11/12 02:16:13;;;;;;;19.77;4.90;;;10.60;99.90;;;;;;4267357;27;20046;-53
2023/11/12 02:18:16;;;;;;;15.60;3.95;;;10.50;99.90;;;;;;4267416;27;20039;-53
2023/11/12 02:20:18;;;;;;;15.98;4.72;;;10.60;99.90;;;;;;4267137;27;20050;-53
2023/11/12 02:22:20;;;;;;;12.93;4.50;;;10.50;99.90;;;;;;4267202;27;20469;-53
2023/11/12 02:24:23;;;;;;;12.75;4.25;;;10.40;99.90;;;;;;4267220;27;20046;-53
2023/11/12 02:26:26;;;;;;;10.55;4.10;;;10.40;99.90;;;;;;4248878;27;20070;-56
2023/11/12 02:28:28;;;;;;;15.30;4.47;;;10.50;99.90;;;;;;4267383;27;20468;-53
2023/11/12 02:30:30;;;;;;;13.73;4.50;;;10.50;99.90;;;;;;4267107;27;20070;-53
2023/11/12 02:32:34;;;;;;;10.45;3.95;;;10.50;99.90;;;;;;4267135;27;20073;-53
2023/11/12 02:34:37;;;;;;;16.02;4.20;;;10.50;99.90;;;;;;4266966;27;20046;-54
2023/11/12 02:36:40;;;;;;;10.80;3.60;;;10.50;99.90;;;;;;4266947;27;20091;-54
2023/11/12 02:38:43;;;;;;;14.10;3.72;;;10.50;99.90;;;;;;4267388;27;20146;-55
2023/11/12 02:40:46;;;;;;;10.80;3.22;;;10.50;99.90;;;;;;4267219;27;20047;-55
2023/11/12 02:42:49;;;;;;;9.85;3.60;;;10.50;99.90;;;;;;4266979;27;20053;-54
2023/11/12 02:44:51;;;;;;;8.35;2.85;;;10.40;99.90;;;;;;4266947;27;20046;-54
2023/11/12 02:46:53;;;;;;;9.60;3.53;;;10.40;99.90;;;;;;4266737;27;20049;-53
2023/11/12 02:49:11;;;;;;;9.85;2.95;;;10.40;99.90;;;;;;4266666;27;20092;-54
2023/11/12 02:51:13;;;;;;;11.85;3.58;;;10.30;99.90;;;;;;4266706;27;20541;-54
2023/11/12 02:53:15;;;;;;;8.77;3.20;;;10.30;99.90;;;;;;4267156;27;20050;-54
2023/11/12 02:55:17;;;;;;;8.10;2.80;;;10.30;99.90;;;;;;4267049;27;20043;-53
2023/11/12 02:57:21;;;;;;;10.75;3.00;;;10.30;99.90;;;;;;4266957;27;20051;-53
2023/11/12 02:59:23;;;;;;;9.48;3.03;;;10.30;99.90;;;;;;4266887;27;20043;-55
2023/11/12 03:01:25;;;;;;;9.60;2.53;;;10.20;99.90;;;;;;4266714;27;20123;-54
2023/11/12 03:03:27;;;;;;;11.25;2.88;;;10.20;99.90;;;;;;4266456;27;20427;-60
2023/11/12 03:05:31;;;;;;;13.45;2.85;;;10.20;99.90;;;;;;4266298;27;20088;-55
2023/11/12 03:07:34;;;;;;;8.10;2.38;;;10.10;99.90;;;;;;4266849;27;20138;-55
2023/11/12 03:09:36;;;;;;;7.05;2.50;;;10.10;99.90;;;;;;4248101;27;20086;-54
2023/11/12 03:11:38;;;;;;;10.10;2.58;;;10.00;99.90;;;;;;4266640;27;20091;-54
2023/11/12 03:13:41;;;;;;;8.65;2.97;;;10.00;99.90;;;;;;4267096;27;20135;-54
2023/11/12 03:15:44;;;;;;;11.30;2.83;;;10.00;99.90;;;;;;4266419;27;20088;-53
2023/11/12 03:17:46;;;;;;;10.70;2.35;;;10.20;99.90;;;;;;4266595;27;20042;-54
2023/11/12 03:19:50;;;;;;;6.80;2.83;;;10.20;99.90;;;;;;4266500;27;20091;-52
2023/11/12 03:21:55;;;;;;;8.90;2.80;;;10.20;99.90;;;;;;4266614;27;20483;-55
2023/11/12 03:23:57;;;;;;;6.07;2.15;;;10.20;99.90;;;;;;4266362;27;20051;-54
2023/11/12 03:26:00;;;;;;;8.20;2.45;;;10.30;99.90;;;;;;4266363;27;20047;-53
2023/11/12 03:28:02;;;;;;;10.60;2.97;;;10.30;99.90;;;;;;4266233;27;20405;-54
2023/11/12 03:30:09;;;;;;;8.02;2.75;;;10.30;99.90;;;;;;4266461;27;20123;-54
2023/11/12 03:32:11;;;;;;;10.23;2.72;;;10.20;99.90;;;;;;4266366;27;20057;-53
2023/11/12 03:34:13;;;;;;;7.82;2.75;;;10.20;99.90;;;;;;4265992;27;20049;-54
2023/11/12 03:36:15;;;;;;;9.45;2.58;;;10.10;99.90;;;;;;4266226;27;20084;-54
2023/11/12 03:38:17;;;;;;;4.82;1.92;;;10.00;99.90;;;;;;4266231;27;20070;-54
2023/11/12 03:40:19;;;;;;;7.20;2.50;;;10.00;99.90;;;;;;4247335;27;20057;-54
2023/11/12 03:42:22;;;;;;;8.85;3.33;;;10.10;99.90;;;;;;4266129;27;20100;-53
2023/11/12 03:44:24;;;;;;;11.60;2.50;;;10.10;99.90;;;;;;4265947;27;20439;-54
2023/11/12 03:46:27;;;;;;;7.22;2.03;;;10.10;99.90;;;;;;4266030;27;20044;-54
2023/11/12 03:48:29;;;;;;;5.57;1.88;;;10.20;99.90;;;;;;4265679;27;20412;-53
2023/11/12 03:50:32;;;;;;;6.43;2.50;;;10.20;99.90;;;;;;4266369;27;20054;-53
2023/11/12 03:52:34;;;;;;;8.05;2.58;;;10.10;99.90;;;;;;4266141;27;20051;-54
2023/11/12 03:54:37;;;;;;;9.30;2.42;;;10.10;99.90;;;;;;4266061;27;20053;-54
2023/11/12 03:56:39;;;;;;;11.45;2.92;;;10.10;99.90;;;;;;4265959;27;20046;-54
2023/11/12 03:58:41;;;;;;;10.27;2.80;;;10.10;99.90;;;;;;4265901;27;20049;-54
2023/11/12 04:00:44;;;;;;;7.25;2.42;;;10.10;99.90;;;;;;4265751;27;20047;-54
2023/11/12 04:02:48;;;;;;;5.03;2.30;;;10.10;99.90;;;;;;4265214;27;20464;-53
2023/11/12 04:04:51;;;;;;;10.55;2.38;;;10.20;99.90;;;;;;4265659;27;20058;-54
2023/11/12 04:06:53;;;;;;;8.23;2.67;;;10.20;99.90;;;;;;4265589;27;20062;-54
2023/11/12 04:08:56;;;;;;;10.43;2.58;;;10.00;99.90;;;;;;4265837;27;20401;-53
2023/11/12 04:10:58;;;;;;;7.30;2.47;;;10.10;99.90;;;;;;4247502;27;20055;-58
2023/11/12 04:13:02;;;;;;;4.90;2.33;;;10.00;99.90;;;;;;4265661;27;20122;-55
2023/11/12 04:15:05;;;;;;;9.18;2.42;;;10.00;99.90;;;;;;4265751;27;20042;-54
2023/11/12 04:17:07;;;;;;;6.85;2.30;;;10.00;99.90;;;;;;4265376;27;20034;-54
2023/11/12 04:19:11;;;;;;;8.07;2.67;;;10.00;99.90;;;;;;4265841;27;20095;-55
2023/11/12 04:21:13;;;;;;;6.55;2.05;;;10.00;99.90;;;;;;4265776;27;20074;-54
2023/11/12 04:23:15;;;;;;;6.40;2.63;;;10.00;99.90;;;;;;4265661;27;20043;-53
2023/11/12 04:25:18;;;;;;;6.40;2.33;;;10.00;99.90;;;;;;4265823;27;20171;-53
2023/11/12 04:27:21;;;;;;;11.93;2.65;;;9.90;99.90;;;;;;4265491;27;20066;-54
2023/11/12 04:29:24;;;;;;;6.68;2.50;;;10.00;99.90;;;;;;4265543;27;20122;-55
2023/11/12 04:31:26;;;;;;;10.07;2.53;;;10.00;99.90;;;;;;4265101;27;20043;-53
2023/11/12 04:33:29;;;;;;;7.03;2.58;;;9.90;99.90;;;;;;4265444;27;20043;-54
2023/11/12 04:35:32;;;;;;;8.63;2.30;;;9.90;99.90;;;;;;4265385;27;20081;-54
2023/11/12 04:37:35;;;;;;;7.97;2.42;;;9.90;99.90;;;;;;4265010;27;20458;-54
2023/11/12 04:39:38;;;;;;;6.20;2.20;;;9.90;99.90;;;;;;4265250;27;20082;-54
2023/11/12 04:41:40;;;;;;;7.20;2.85;;;9.90;99.90;;;;;;4265425;27;20095;-54
2023/11/12 04:43:42;;;;;;;5.78;2.50;;;9.90;99.90;;;;;;4265277;27;20068;-54
2023/11/12 04:45:44;;;;;;;8.45;2.70;;;9.90;99.90;;;;;;4265304;27;20421;-54
2023/11/12 04:47:46;;;;;;;5.22;2.33;;;9.90;99.90;;;;;;4264860;27;20042;-53
2023/11/12 04:49:49;;;;;;;5.70;1.90;;;9.90;99.90;;;;;;4265312;27;20038;-54
2023/11/12 04:51:53;;;;;;;7.03;2.45;;;9.90;99.90;;;;;;4247055;27;20048;-54
2023/11/12 04:53:56;;;;;;;6.18;2.00;;;9.90;99.90;;;;;;4265228;27;20046;-53
2023/11/12 04:55:58;;;;;;;4.97;1.80;;;10.00;99.90;;;;;;4265267;27;20473;-55
2023/11/12 04:58:01;;;;;;;5.07;1.73;;;10.00;99.90;;;;;;4264996;27;20046;-54
2023/11/12 05:00:06;;;;;;;6.88;1.73;;;10.00;99.90;;;;;;4265191;27;20043;-55
2023/11/12 05:02:10;;;;;;;5.88;1.45;;;9.90;99.90;;;;;;4264769;27;20067;-55
2023/11/12 05:04:13;;;;;;;3.72;1.60;;;10.00;99.90;;;;;;4265410;27;20051;-53
2023/11/12 05:06:15;;;;;;;6.85;1.88;;;10.00;99.90;;;;;;4265050;27;20122;-55
2023/11/12 05:08:19;;;;;;;4.97;1.83;;;10.00;99.90;;;;;;4265273;27;20047;-54
2023/11/12 05:10:21;;;;;;;2.78;0.98;;;9.90;99.90;;;;;;4264959;27;20064;-53
2023/11/12 05:12:43;;;;;;;5.80;1.83;;;9.90;99.90;;;;;;4264101;27;20042;-55
2023/11/12 05:14:45;;;;;;;4.30;1.27;;;9.80;99.90;;;;;;4264650;27;20038;-53
2023/11/12 05:16:48;;;;;;;3.45;1.55;;;9.80;99.90;;;;;;4264516;27;20447;-53
2023/11/12 05:18:50;;;;;;;4.68;1.42;;;9.70;99.90;;;;;;4265195;27;20511;-55
2023/11/12 05:20:52;;;;;;;5.70;1.40;;;9.60;99.90;;;;;;4264955;27;20058;-53
2023/11/12 05:22:54;;;;;;;4.07;1.50;;;9.60;99.90;;;;;;4267110;27;20043;-54
2023/11/12 05:24:58;;;;;;;4.93;1.60;;;9.70;99.90;;;;;;4268193;27;20047;-53
2023/11/12 05:27:01;;;;;;;3.83;1.45;;;9.60;99.90;;;;;;4267879;27;20046;-57
2023/11/12 05:29:03;;;;;;;4.32;1.50;;;9.60;99.90;;;;;;4266072;27;20043;-54
2023/11/12 05:31:05;;;;;;;3.25;1.33;;;9.60;99.90;;;;;;4266526;27;20050;-57
2023/11/12 05:33:08;;;;;;;6.55;1.65;;;9.60;99.90;;;;;;4265673;27;20435;-54
2023/11/12 05:35:10;;;;;;;3.70;1.40;;;9.70;99.90;;;;;;4264769;27;20070;-53
2023/11/12 05:37:13;;;;;;;5.32;1.50;;;9.70;99.90;;;;;;4264708;27;20167;-56
2023/11/12 05:39:15;;;;;;;3.97;1.17;;;9.70;99.90;;;;;;4265030;27;20066;-54
2023/11/12 05:41:18;;;;;;;5.70;1.52;;;9.80;99.90;;;;;;4264945;27;20516;-53
2023/11/12 05:43:21;;;;;;;3.22;1.20;;;9.80;99.90;;;;;;4264816;27;20042;-54
2023/11/12 05:45:23;;;;;;;4.93;1.40;;;9.80;99.90;;;;;;4264167;27;20043;-55
2023/11/12 05:47:26;;;;;;;3.35;1.50;;;9.60;99.90;;;;;;4264655;27;20051;-54
2023/11/12 05:49:28;;;;;;;3.75;1.20;;;9.60;99.90;;;;;;4264672;27;20046;-54
2023/11/12 05:51:31;;;;;;;4.63;1.48;;;9.70;99.90;;;;;;4264568;27;20074;-53
2023/11/12 05:53:33;;;;;;;7.22;1.55;;;9.70;99.90;;;;;;4264445;27;20366;-54
2023/11/12 05:55:37;;;;;;;5.03;1.35;;;9.70;99.90;;;;;;4264614;27;20039;-54
2023/11/12 05:57:41;;;;;;;3.50;1.67;;;9.70;99.90;;;;;;4246173;28;20069;-58
2023/11/12 05:59:43;;;;;;;4.70;1.25;;;9.80;99.90;;;;;;4264424;27;20051;-54
2023/11/12 06:01:45;;;;;;;4.43;1.58;;;9.90;99.90;;;;;;4264672;27;20049;-55
2023/11/12 06:03:50;;;;;;;;;;;9.90;99.90;;;;;;4265277;27;20069;-55
2023/11/12 06:05:52;;;;;;;4.05;1.35;;;10.00;99.90;;;;;;4264639;27;20009;-54
2023/11/12 06:07:55;;;;;;;5.95;1.58;;;9.90;99.90;;;;;;4265062;27;20046;-53
2023/11/12 06:09:57;;;;;;;4.53;1.15;;;9.90;99.90;;;;;;4264646;27;20047;-54
2023/11/12 06:12:04;;;;;;;4.97;1.60;;;9.90;99.90;;;;;;4246828;27;20043;-55
2023/11/12 06:14:08;;;;;;;3.00;1.40;;;9.90;99.90;;;;;;4264294;27;20046;-55
2023/11/12 06:16:10;;;;;;;5.38;1.70;;;10.00;99.90;;;;;;4264554;27;20054;-54
2023/11/12 06:18:13;;;;;;;3.67;1.40;;;10.00;99.90;;;;;;4264563;27;20449;-55
2023/11/12 06:20:15;;;;;;;5.50;1.50;;;9.90;99.90;;;;;;4264253;27;20117;-53
2023/11/12 06:22:17;;;;;;;3.88;1.40;;;9.90;99.90;;;;;;4265159;27;20127;-64
2023/11/12 06:24:19;;;;;;;2.95;1.30;;;9.90;99.90;;;;;;4266211;27;20046;-57
2023/11/12 06:26:22;;;;;;;3.92;1.55;;;9.90;99.90;;;;;;4268934;27;20046;-61
2023/11/12 06:28:24;;;;;;;5.20;1.30;;;10.00;99.90;;;;;;4268451;27;20133;-55
2023/11/12 06:30:28;;;;;;;4.43;1.75;;;10.00;99.90;;;;;;4268431;27;20042;-62
2023/11/12 06:32:30;;;;;;;5.28;1.48;;;9.90;99.90;;;;;;4269073;27;20047;-57
2023/11/12 06:34:34;;;;;;;4.38;1.70;;;9.90;99.90;;;;;;4269413;27;20042;-54
2023/11/12 06:36:36;;;;;;;6.97;1.50;;;10.00;99.90;;;;;;4268079;27;20054;-54
2023/11/12 06:38:39;;;;;;;2.75;1.08;;;9.90;99.90;;;;;;4267127;27;20073;-54
2023/11/12 06:40:41;;;;;;;6.25;1.40;;;10.00;99.90;;;;;;4267553;27;20128;-54
2023/11/12 06:42:43;;;;;;;4.30;1.67;;;9.90;99.90;;;;;;4267165;27;20039;-53
2023/11/12 06:44:45;;;;;;;3.95;1.38;;;10.00;99.90;;;;;;4267639;27;20401;-60
2023/11/12 06:46:48;;;;;;;4.32;1.58;;;9.90;99.90;;;;;;4267255;27;20047;-54
2023/11/12 06:48:51;;;;;;;3.25;1.25;;;10.00;99.90;;;;;;4268888;27;20038;-57
2023/11/12 06:50:53;;;;;;;4.25;1.27;;;9.90;99.90;;;;;;4268769;27;20047;-59
2023/11/12 06:52:56;;;;;;;3.75;1.23;;;9.80;99.90;;;;;;4268392;27;20049;-61
2023/11/12 06:55:01;;;;;;;3.53;1.52;;;9.80;99.90;;;;;;4269378;27;20092;-61
2023/11/12 06:57:04;;;;;;;3.80;1.30;;;9.90;99.90;;;;;;4269305;27;20046;-61
2023/11/12 06:59:06;;;;;;;6.68;1.42;;;9.70;99.90;;;;;;4269554;27;20438;-55
2023/11/12 07:01:08;;;;;;;3.72;1.40;;;9.80;99.90;;;;;;4269285;27;20043;-69
2023/11/12 07:03:12;;;;;;;5.03;1.17;;;9.80;99.90;;;;;;4268710;27;20107;-59
2023/11/12 07:05:16;;;;;;;4.70;1.80;;;9.70;99.90;;;;;;4269616;27;20049;-53
2023/11/12 07:07:20;;;;;;;3.58;1.35;;;9.70;99.90;;;;;;4269871;27;20046;-62
2023/11/12 07:09:23;;;;;;;4.30;1.40;;;9.80;99.90;;;;;;4270293;27;20054;-55
2023/11/12 07:11:26;;;;;;;5.65;1.20;;;9.70;99.90;;;;;;4251020;27;20103;-56
2023/11/12 07:13:31;;;;;;;5.80;1.48;;;9.80;99.90;;;;;;4270328;27;20054;-59
2023/11/12 07:15:33;;;;;;;4.93;1.40;;;9.70;99.90;;;;;;4268580;27;20088;-55
2023/11/12 07:17:36;;;;;;;4.00;1.23;;;9.70;99.90;;;;;;4266973;27;20050;-55
2023/11/12 07:19:40;;;;;;;4.30;1.30;;;9.70;99.90;;;;;;4266789;27;20045;-54
2023/11/12 07:21:43;;;;;;;6.32;1.65;;;9.80;99.90;;;;;;4266789;27;20125;-54
2023/11/12 07:23:45;;;;;;;5.07;1.15;;;9.80;99.90;;;;;;4266814;27;20434;-54
2023/11/12 07:25:47;;;;;;;5.90;2.25;;;9.70;99.90;;;;;;4266351;27;20050;-54
2023/11/12 07:27:49;;;;;;;5.88;1.52;;;9.60;99.90;;;;;;4266844;27;20051;-54
2023/11/12 07:29:51;;;;;;;3.40;1.30;;;9.60;99.90;;;;;;4266862;27;20047;-54
2023/11/12 07:31:54;;;;;;;3.85;1.50;;;9.60;99.90;;;;;;4266742;27;20134;-55
2023/11/12 07:33:56;;;;;;;4.15;1.38;;;9.60;99.90;;;;;;4266613;27;20053;-54
2023/11/12 07:36:04;;;;;;;5.38;1.45;;;9.60;99.90;;;;;;4265716;27;20087;-54
2023/11/12 07:38:06;;;;;;;3.05;1.20;;;9.60;99.90;;;;;;4266118;27;20042;-54
2023/11/12 07:40:10;;;;;;;4.75;1.25;;;9.70;99.90;;;;;;4265999;27;20046;-54
2023/11/12 07:42:13;;;;;;;5.25;1.25;;;9.70;99.90;;;;;;4266538;27;20116;-53
2023/11/12 07:44:15;;;;;;;3.90;1.35;;;9.70;99.90;;;;;;4248259;27;20096;-53
2023/11/12 07:46:17;;;;;;;6.70;1.80;;;9.70;99.90;;;;;;4266225;27;20050;-52
2023/11/12 07:48:20;;;;;;;4.47;1.35;;;9.60;99.90;;;;;;4265977;27;20041;-54
2023/11/12 07:50:22;;;;;;;6.53;1.83;;;9.60;99.90;;;;;;4266387;27;20398;-56
2023/11/12 07:52:25;;;;;;;3.63;1.17;;;9.70;99.90;;;;;;4266367;27;20096;-57
2023/11/12 07:54:27;;;;;;;4.32;1.75;;;9.70;99.90;;;;;;4265970;27;20108;-54
2023/11/12 07:56:30;;;;;;;3.40;1.40;;;9.70;99.90;;;;;;4266345;27;20050;-53
2023/11/12 07:58:44;;;;;;;2.97;1.20;;;9.70;99.90;;;;;;4265922;27;20525;-53
2023/11/12 08:00:46;;;;;;;5.82;1.30;;;9.70;99.90;;;;;;4266148;27;20046;-54
2023/11/12 08:02:49;;;;;;;2.47;1.17;;;9.70;99.90;;;;;;4266375;27;20135;-53
2023/11/12 08:04:51;;;;;;;3.53;1.20;;;9.70;99.90;;;;;;4265952;27;20042;-54
2023/11/12 08:06:53;;;;;;;3.42;1.40;;;9.60;99.90;;;;;;4266775;27;20043;-55
2023/11/12 08:08:59;;;;;;;6.30;1.40;;;9.50;99.90;;;;;;4265842;27;20524;-54
2023/11/12 08:11:03;;;;;;;2.47;1.05;;;9.40;99.90;;;;;;4266038;27;20047;-53
2023/11/12 08:13:05;;;;;;;2.42;1.08;;;9.60;99.90;;;;;;4266151;27;20046;-55
2023/11/12 08:15:12;;;;;;;3.58;1.30;;;9.60;99.90;;;;;;4265981;27;20077;-53
2023/11/12 08:17:14;;;;;;;4.18;1.27;;;9.60;99.90;;;;;;4265963;27;20046;-54
2023/11/12 08:19:17;;;;;;;1.92;1.00;;;9.70;99.90;;;;;;4266200;27;20071;-54
2023/11/12 08:21:19;;;;;;;2.33;0.88;;;9.60;99.90;;;;;;4266924;27;20072;-55
2023/11/12 08:23:21;;;;;;;2.10;0.80;;;9.50;99.90;;;;;;4267217;27;20045;-55
2023/11/12 08:25:24;;;;;;;4.18;1.08;;;9.60;99.90;;;;;;4267862;27;20068;-56
2023/11/12 08:27:27;;;;;;;1.70;0.97;;;9.60;99.90;;;;;;4267331;27;20043;-56
2023/11/12 08:29:31;;;;;;;2.17;1.05;;;9.60;99.90;;;;;;4266402;27;20533;-58
2023/11/12 08:31:36;;;;;;;3.72;1.20;;;9.70;99.90;;;;;;4266540;27;20468;-58
2023/11/12 08:33:38;;;;;;;3.35;1.10;;;9.60;99.90;;;;;;4266507;27;20050;-54
2023/11/12 08:35:40;;;;;;;2.30;1.17;;;9.60;99.90;;;;;;4265905;27;20047;-54
2023/11/12 08:37:42;;;;;;;3.95;1.20;;;9.60;99.90;;;;;;4265448;27;20046;-55
2023/11/12 08:39:45;;;;;;;2.22;0.88;;;9.60;99.90;;;;;;4246847;27;20137;-55
2023/11/12 08:41:48;;;;;;;2.42;1.00;;;9.70;99.90;;;;;;4265155;27;20053;-55
2023/11/12 08:43:50;;;;;;;3.78;1.20;;;9.70;99.90;;;;;;4265685;27;20386;-52
2023/11/12 08:45:52;;;;;;;3.22;1.30;;;9.70;99.90;;;;;;4265396;27;20099;-54
2023/11/12 08:47:55;;;;;;;4.43;1.15;;;9.80;99.90;;;;;;4265118;27;20035;-54
2023/11/12 08:49:58;;;;;;;3.50;1.38;;;9.70;99.90;;;;;;4265181;27;20053;-53
2023/11/12 08:52:00;;;;;;;3.22;1.33;;;9.70;99.90;;;;;;4265202;27;20047;-54
2023/11/12 08:54:03;;;;;;;2.47;1.05;;;9.70;99.90;;;;;;4264922;27;20090;-53
2023/11/12 08:56:06;;;;;;;3.15;1.10;;;9.80;99.90;;;;;;4264997;27;20061;-55
2023/11/12 08:58:09;;;;;;;2.97;1.10;;;9.80;99.90;;;;;;4264806;27;20386;-55
2023/11/12 09:00:13;;;;;;;3.25;1.17;;;9.70;99.90;;;;;;4265044;27;20055;-55
2023/11/12 09:02:15;;;;;;;2.90;1.20;;;9.90;99.90;;;;;;4264779;27;20084;-54
2023/11/12 09:04:17;;;;;;;2.25;1.25;;;9.80;99.90;;;;;;4264937;27;20096;-54
2023/11/12 09:06:19;;;;;;;2.83;1.35;;;9.90;99.90;;;;;;4265083;27;20049;-53
2023/11/12 09:08:21;;;;;;;2.15;0.93;;;9.90;99.90;;;;;;4265184;27;20565;-54
2023/11/12 09:10:24;;;;;;;2.55;1.27;;;9.80;99.90;;;;;;4265278;27;20145;-53
2023/11/12 09:12:27;;;;;;;3.47;1.20;;;10.00;99.90;;;;;;4265145;27;20043;-52
2023/11/12 09:14:30;;;;;;;1.58;1.02;;;10.00;99.90;;;;;;4264977;27;20053;-54
2023/11/12 09:16:34;;;;;;;4.35;1.38;;;10.00;99.90;;;;;;4264833;27;20103;-54
2023/11/12 09:18:36;;;;;;;2.13;1.10;;;10.10;99.90;;;;;;4264696;27;20042;-55
2023/11/12 09:20:38;;;;;;;2.63;1.00;;;10.10;99.90;;;;;;4264971;27;20039;-54
2023/11/12 09:22:40;;;;;;;4.13;1.17;;;10.10;99.90;;;;;;4246068;27;20047;-53
2023/11/12 09:24:46;;;;;;;1.67;0.70;;;10.10;99.90;;;;;;4264879;27;20088;-54
2023/11/12 09:27:08;;;;;;;;;;;10.20;99.90;;;;;;4265462;27;20431;-54
2023/11/12 09:29:11;;;;;;;1.92;1.00;;;10.20;99.90;;;;;;4264915;27;19922;-55
2023/11/12 09:31:14;;;;;;;3.15;1.08;;;10.30;99.90;;;;;;4264710;27;20405;-55
2023/11/12 09:33:16;;;;;;;2.08;1.00;;;10.30;99.90;;;;;;4264775;27;20054;-54
2023/11/12 09:35:19;;;;;;;3.20;1.30;;;10.30;99.90;;;;;;4264643;27;20071;-55
2023/11/12 09:37:22;;;;;;;2.55;1.10;;;10.40;99.90;;;;;;4264749;27;20043;-53
2023/11/12 09:39:24;;;;;;;2.40;1.10;;;10.30;99.90;;;;;;4264960;27;20141;-54
2023/11/12 09:41:28;;;;;;;1.80;0.98;;;10.30;99.90;;;;;;4264970;27;20042;-59
2023/11/12 09:43:30;;;;;;;1.42;0.90;;;10.30;99.90;;;;;;4264840;27;20071;-55
2023/11/12 09:45:34;;;;;;;1.70;0.80;;;10.40;99.90;;;;;;4264438;27;20042;-54
2023/11/12 09:47:48;;;;;;;1.77;0.90;;;10.30;99.90;;;;;;4264467;27;20057;-52
2023/11/12 09:49:51;;;;;;;3.88;0.98;;;10.40;99.90;;;;;;4264679;27;20050;-54
2023/11/12 09:51:53;;;;;;;3.70;0.95;;;10.40;99.90;;;;;;4264181;27;20103;-56
2023/11/12 09:53:58;;;;;;;2.22;1.08;;;10.50;99.90;;;;;;4264398;27;20513;-53
2023/11/12 09:56:09;;;;;;;1.40;1.10;;;10.40;99.90;;;;;;4264463;27;20096;-54
2023/11/12 09:58:12;;;;;;;2.42;1.20;;;10.50;99.90;;;;;;4264585;27;20054;-54
2023/11/12 10:00:16;;;;;;;1.20;1.00;;;10.40;99.90;;;;;;4266704;27;20047;-53
2023/11/12 10:02:20;;;;;;;1.58;1.13;;;10.40;99.90;;;;;;4267548;27;20138;-56
2023/11/12 10:04:24;;;;;;;3.17;1.33;;;10.40;99.90;;;;;;4267686;27;20043;-55
2023/11/12 10:06:26;;;;;;;5.15;1.60;;;10.50;99.90;;;;;;4267254;27;20439;-54
2023/11/12 10:08:29;;;;;;;3.15;1.27;;;10.60;99.90;;;;;;4268144;27;20038;-54
2023/11/12 10:10:31;;;;;;;1.90;1.10;;;10.60;99.90;;;;;;4267863;27;20046;-54
2023/11/12 10:12:45;;;;;;;2.17;1.50;;;10.60;99.90;;;;;;4267813;27;20582;-54
2023/11/12 10:15:01;;;;;;;3.13;1.70;;;10.80;99.90;;;;;;4267682;27;20482;-54
2023/11/12 10:17:07;;;;;;;3.58;1.80;;;10.80;99.90;;;;;;4267690;27;20525;-55
2023/11/12 10:19:13;;;;;;;2.85;1.58;;;10.90;99.90;;;;;;4267598;27;20099;-54
2023/11/12 10:21:19;;;;;;;2.95;1.70;;;10.90;99.90;;;;;;4267085;27;20533;-54
2023/11/12 10:23:21;;;;;;;;;;;11.00;99.90;;;;;;4268304;27;20446;-52
2023/11/12 10:25:42;;;;;;;3.25;2.25;;;11.00;99.90;;;;;;4267543;27;19919;-54
2023/11/12 10:27:52;;;;;;;3.05;2.17;;;10.90;99.90;;;;;;4267362;27;20043;-54
2023/11/12 10:29:55;;;;;;;2.30;1.58;;;10.90;99.90;;;;;;4267542;27;20126;-53
2023/11/12 10:31:57;;;;;;;2.38;1.73;;;11.10;99.90;;;;;;4267713;27;20054;-54
2023/11/12 10:33:59;;;;;;;2.45;1.55;;;11.20;99.90;;;;;;4248638;27;20053;-54
2023/11/12 10:36:08;;;;;;;2.78;1.80;;;11.30;99.90;;;;;;4267958;27;20058;-54
2023/11/12 10:38:15;;;;;;;2.95;1.50;;;11.30;99.90;;;;;;4267311;27;20074;-54
2023/11/12 10:40:17;;;;;;;2.28;1.50;;;11.40;99.90;;;;;;4267289;27;20081;-54
2023/11/12 10:42:21;;;;;;;2.10;1.58;;;11.50;99.90;;;;;;4267110;27;20046;-54